sensor_id;sensor_type;location;lat;lon;timestamp;temperature;humidity
67182;DHT22;54114;53.524;49.396;2022-09-17T00:01:15;20.30;66.50
67182;DHT22;54114;53.524;49.396;2022-09-17T00:03:57;20.30;66.90
67182;DHT22;54114;53.524;49.396;2022-09-17T00:06:30;20.30;67.70
67182;DHT22;54114;53.524;49.396;2022-09-17T00:08:57;20.30;67.20
67182;DHT22;54114;53.524;49.396;2022-09-17T00:11:29;20.40;67.30
67182;DHT22;54114;53.524;49.396;2022-09-17T00:13:58;20.50;67.20
67182;DHT22;54114;53.524;49.396;2022-09-17T00:16:46;20.50;67.00
67182;DHT22;54114;53.524;49.396;2022-09-17T00:19:20;20.50;66.90
67182;DHT22;54114;53.524;49.396;2022-09-17T00:21:48;20.50;67.20
67182;DHT22;54114;53.524;49.396;2022-09-17T00:24:16;20.50;67.10
67182;DHT22;54114;53.524;49.396;2022-09-17T00:26:44;20.50;67.20
67182;DHT22;54114;53.524;49.396;2022-09-17T00:29:11;20.50;67.30
67182;DHT22;54114;53.524;49.396;2022-09-17T00:31:38;20.40;67.30
67182;DHT22;54114;53.524;49.396;2022-09-17T00:34:05;20.40;67.50
67182;DHT22;54114;53.524;49.396;2022-09-17T00:36:37;20.50;67.50
67182;DHT22;54114;53.524;49.396;2022-09-17T00:39:05;20.50;67.50
67182;DHT22;54114;53.524;49.396;2022-09-17T00:41:33;20.50;67.50
67182;DHT22;54114;53.524;49.396;2022-09-17T00:47:37;20.70;67.30
67182;DHT22;54114;53.524;49.396;2022-09-17T00:50:33;20.70;67.20
67182;DHT22;54114;53.524;49.396;2022-09-17T00:53:12;20.60;67.10
67182;DHT22;54114;53.524;49.396;2022-09-17T00:56:02;20.70;67.20
67182;DHT22;54114;53.524;49.396;2022-09-17T00:58:33;20.80;66.90
67182;DHT22;54114;53.524;49.396;2022-09-17T01:01:01;20.80;66.80
67182;DHT22;54114;53.524;49.396;2022-09-17T01:03:28;20.90;66.60
67182;DHT22;54114;53.524;49.396;2022-09-17T01:14:52;21.20;65.60
67182;DHT22;54114;53.524;49.396;2022-09-17T01:30:00;20.90;66.20
67182;DHT22;54114;53.524;49.396;2022-09-17T01:35:48;20.70;66.90
67182;DHT22;54114;53.524;49.396;2022-09-17T01:44:52;20.60;67.30
67182;DHT22;54114;53.524;49.396;2022-09-17T01:47:56;20.50;67.70
67182;DHT22;54114;53.524;49.396;2022-09-17T01:50:32;20.60;67.80
67182;DHT22;54114;53.524;49.396;2022-09-17T01:53:11;20.60;67.80
67182;DHT22;54114;53.524;49.396;2022-09-17T01:55:42;20.60;67.90
67182;DHT22;54114;53.524;49.396;2022-09-17T01:58:24;20.70;67.80
67182;DHT22;54114;53.524;49.396;2022-09-17T02:01:00;20.90;67.40
67182;DHT22;54114;53.524;49.396;2022-09-17T02:03:35;20.90;67.10
67182;DHT22;54114;53.524;49.396;2022-09-17T02:06:12;21.00;66.90
67182;DHT22;54114;53.524;49.396;2022-09-17T02:09:10;21.10;66.90
67182;DHT22;54114;53.524;49.396;2022-09-17T02:11:39;21.20;66.80
67182;DHT22;54114;53.524;49.396;2022-09-17T02:14:13;21.30;66.70
67182;DHT22;54114;53.524;49.396;2022-09-17T02:16:49;21.30;66.60
67182;DHT22;54114;53.524;49.396;2022-09-17T02:19:29;21.30;66.60
67182;DHT22;54114;53.524;49.396;2022-09-17T02:25:01;21.30;66.30
67182;DHT22;54114;53.524;49.396;2022-09-17T02:28:00;21.30;66.40
67182;DHT22;54114;53.524;49.396;2022-09-17T02:30:29;21.30;66.40
67182;DHT22;54114;53.524;49.396;2022-09-17T02:32:57;21.40;66.30
67182;DHT22;54114;53.524;49.396;2022-09-17T02:35:24;21.50;66.20
67182;DHT22;54114;53.524;49.396;2022-09-17T02:37:50;21.50;66.00
67182;DHT22;54114;53.524;49.396;2022-09-17T02:40:18;21.60;66.00
67182;DHT22;54114;53.524;49.396;2022-09-17T02:46:18;21.60;65.70
67182;DHT22;54114;53.524;49.396;2022-09-17T02:49:09;21.60;65.70
67182;DHT22;54114;53.524;49.396;2022-09-17T02:55:33;21.50;65.60
67182;DHT22;54114;53.524;49.396;2022-09-17T03:01:08;21.40;66.10
67182;DHT22;54114;53.524;49.396;2022-09-17T03:03:45;21.30;66.50
67182;DHT22;54114;53.524;49.396;2022-09-17T03:06:15;21.40;66.50
67182;DHT22;54114;53.524;49.396;2022-09-17T03:08:44;21.40;66.40
67182;DHT22;54114;53.524;49.396;2022-09-17T03:11:12;21.50;66.40
67182;DHT22;54114;53.524;49.396;2022-09-17T03:13:38;21.60;66.20
67182;DHT22;54114;53.524;49.396;2022-09-17T03:16:05;21.50;66.00
67182;DHT22;54114;53.524;49.396;2022-09-17T03:18:32;21.60;66.10
67182;DHT22;54114;53.524;49.396;2022-09-17T03:20:59;21.70;66.00
67182;DHT22;54114;53.524;49.396;2022-09-17T03:23:26;21.60;65.90
67182;DHT22;54114;53.524;49.396;2022-09-17T03:25:53;21.50;66.10
67182;DHT22;54114;53.524;49.396;2022-09-17T03:28:20;21.50;66.40
67182;DHT22;54114;53.524;49.396;2022-09-17T03:30:47;21.50;66.30
67182;DHT22;54114;53.524;49.396;2022-09-17T03:33:13;21.60;66.30
67182;DHT22;54114;53.524;49.396;2022-09-17T03:35:44;21.70;66.20
67182;DHT22;54114;53.524;49.396;2022-09-17T03:38:12;21.70;66.00
67182;DHT22;54114;53.524;49.396;2022-09-17T03:40:38;21.70;66.00
67182;DHT22;54114;53.524;49.396;2022-09-17T03:43:05;21.70;66.00
67182;DHT22;54114;53.524;49.396;2022-09-17T03:45:32;21.70;65.80
67182;DHT22;54114;53.524;49.396;2022-09-17T03:47:59;21.70;65.80
67182;DHT22;54114;53.524;49.396;2022-09-17T03:50:26;21.70;66.10
67182;DHT22;54114;53.524;49.396;2022-09-17T03:52:53;21.70;66.10
67182;DHT22;54114;53.524;49.396;2022-09-17T03:55:19;21.80;66.00
67182;DHT22;54114;53.524;49.396;2022-09-17T03:57:46;21.80;66.70
67182;DHT22;54114;53.524;49.396;2022-09-17T04:00:13;21.80;66.10
67182;DHT22;54114;53.524;49.396;2022-09-17T04:02:42;21.90;66.00
67182;DHT22;54114;53.524;49.396;2022-09-17T04:05:08;22.00;65.90
67182;DHT22;54114;53.524;49.396;2022-09-17T04:07:35;22.00;65.80
67182;DHT22;54114;53.524;49.396;2022-09-17T04:10:02;22.10;66.00
67182;DHT22;54114;53.524;49.396;2022-09-17T04:12:30;22.10;65.90
67182;DHT22;54114;53.524;49.396;2022-09-17T04:14:57;22.10;66.00
67182;DHT22;54114;53.524;49.396;2022-09-17T04:17:23;22.20;66.00
67182;DHT22;54114;53.524;49.396;2022-09-17T04:19:50;22.20;65.70
67182;DHT22;54114;53.524;49.396;2022-09-17T04:22:18;22.30;65.80
67182;DHT22;54114;53.524;49.396;2022-09-17T04:24:45;22.30;65.80
67182;DHT22;54114;53.524;49.396;2022-09-17T04:27:11;22.40;65.70
67182;DHT22;54114;53.524;49.396;2022-09-17T04:29:38;22.40;65.60
67182;DHT22;54114;53.524;49.396;2022-09-17T04:32:05;22.50;65.60
67182;DHT22;54114;53.524;49.396;2022-09-17T04:34:32;22.60;65.30
67182;DHT22;54114;53.524;49.396;2022-09-17T04:36:58;22.70;65.10
67182;DHT22;54114;53.524;49.396;2022-09-17T04:39:25;22.80;64.90
67182;DHT22;54114;53.524;49.396;2022-09-17T04:41:52;23.00;64.50
67182;DHT22;54114;53.524;49.396;2022-09-17T04:44:18;23.10;64.20
67182;DHT22;54114;53.524;49.396;2022-09-17T04:46:45;23.20;64.00
67182;DHT22;54114;53.524;49.396;2022-09-17T04:49:12;23.50;63.80
67182;DHT22;54114;53.524;49.396;2022-09-17T04:51:39;23.70;62.90
67182;DHT22;54114;53.524;49.396;2022-09-17T04:54:05;23.90;62.30
67182;DHT22;54114;53.524;49.396;2022-09-17T04:56:32;24.00;61.80
67182;DHT22;54114;53.524;49.396;2022-09-17T04:58:59;24.20;61.60
67182;DHT22;54114;53.524;49.396;2022-09-17T05:01:26;24.20;61.00
67182;DHT22;54114;53.524;49.396;2022-09-17T05:03:52;24.20;60.80
67182;DHT22;54114;53.524;49.396;2022-09-17T05:06:19;24.40;60.70
67182;DHT22;54114;53.524;49.396;2022-09-17T05:08:45;24.70;60.20
67182;DHT22;54114;53.524;49.396;2022-09-17T05:11:12;24.90;59.50
67182;DHT22;54114;53.524;49.396;2022-09-17T05:13:39;25.00;59.00
67182;DHT22;54114;53.524;49.396;2022-09-17T05:16:06;25.20;58.40
67182;DHT22;54114;53.524;49.396;2022-09-17T05:18:32;25.30;57.90
67182;DHT22;54114;53.524;49.396;2022-09-17T05:20:59;25.20;57.90
67182;DHT22;54114;53.524;49.396;2022-09-17T05:23:26;25.30;57.60
67182;DHT22;54114;53.524;49.396;2022-09-17T05:25:57;25.30;57.10
67182;DHT22;54114;53.524;49.396;2022-09-17T05:28:25;25.20;57.60
67182;DHT22;54114;53.524;49.396;2022-09-17T05:30:52;25.10;56.90
67182;DHT22;54114;53.524;49.396;2022-09-17T05:33:19;25.00;57.00
67182;DHT22;54114;53.524;49.396;2022-09-17T05:35:46;25.00;56.80
67182;DHT22;54114;53.524;49.396;2022-09-17T05:38:12;24.90;56.90
67182;DHT22;54114;53.524;49.396;2022-09-17T05:40:39;24.90;57.10
67182;DHT22;54114;53.524;49.396;2022-09-17T05:43:06;24.70;56.90
67182;DHT22;54114;53.524;49.396;2022-09-17T05:45:34;24.60;57.30
67182;DHT22;54114;53.524;49.396;2022-09-17T05:48:04;24.60;57.40
67182;DHT22;54114;53.524;49.396;2022-09-17T05:50:33;24.60;57.10
67182;DHT22;54114;53.524;49.396;2022-09-17T05:53:04;24.60;57.10
67182;DHT22;54114;53.524;49.396;2022-09-17T05:55:32;24.50;58.00
67182;DHT22;54114;53.524;49.396;2022-09-17T05:58:16;24.50;57.20
67182;DHT22;54114;53.524;49.396;2022-09-17T06:00:45;24.40;57.40
67182;DHT22;54114;53.524;49.396;2022-09-17T06:03:14;24.40;57.80
67182;DHT22;54114;53.524;49.396;2022-09-17T06:05:42;24.50;57.80
67182;DHT22;54114;53.524;49.396;2022-09-17T06:08:10;24.60;57.40
67182;DHT22;54114;53.524;49.396;2022-09-17T06:10:37;24.50;57.20
67182;DHT22;54114;53.524;49.396;2022-09-17T06:13:04;24.30;57.50
67182;DHT22;54114;53.524;49.396;2022-09-17T06:15:31;24.20;58.00
67182;DHT22;54114;53.524;49.396;2022-09-17T06:17:58;24.20;58.10
67182;DHT22;54114;53.524;49.396;2022-09-17T06:20:24;24.10;58.30
67182;DHT22;54114;53.524;49.396;2022-09-17T06:22:57;24.00;58.40
67182;DHT22;54114;53.524;49.396;2022-09-17T06:25:25;23.90;58.80
67182;DHT22;54114;53.524;49.396;2022-09-17T06:27:51;23.90;59.00
67182;DHT22;54114;53.524;49.396;2022-09-17T06:30:18;23.90;59.30
67182;DHT22;54114;53.524;49.396;2022-09-17T06:32:44;24.00;58.90
67182;DHT22;54114;53.524;49.396;2022-09-17T06:35:11;24.00;58.70
67182;DHT22;54114;53.524;49.396;2022-09-17T06:37:38;23.90;58.70
67182;DHT22;54114;53.524;49.396;2022-09-17T06:40:06;23.90;58.80
67182;DHT22;54114;53.524;49.396;2022-09-17T06:42:33;23.80;59.20
67182;DHT22;54114;53.524;49.396;2022-09-17T06:45:00;23.70;59.50
67182;DHT22;54114;53.524;49.396;2022-09-17T06:47:27;23.80;59.60
67182;DHT22;54114;53.524;49.396;2022-09-17T06:49:54;23.80;59.70
67182;DHT22;54114;53.524;49.396;2022-09-17T06:52:22;23.80;59.50
67182;DHT22;54114;53.524;49.396;2022-09-17T06:54:48;23.80;59.50
67182;DHT22;54114;53.524;49.396;2022-09-17T06:57:15;23.80;59.70
67182;DHT22;54114;53.524;49.396;2022-09-17T06:59:41;23.90;59.90
67182;DHT22;54114;53.524;49.396;2022-09-17T07:02:09;24.10;59.50
67182;DHT22;54114;53.524;49.396;2022-09-17T07:04:35;24.20;58.90
67182;DHT22;54114;53.524;49.396;2022-09-17T07:07:02;24.30;58.70
67182;DHT22;54114;53.524;49.396;2022-09-17T07:09:30;24.50;58.30
67182;DHT22;54114;53.524;49.396;2022-09-17T07:11:56;24.70;57.40
67182;DHT22;54114;53.524;49.396;2022-09-17T07:14:23;24.80;56.60
67182;DHT22;54114;53.524;49.396;2022-09-17T07:16:51;24.90;56.10
67182;DHT22;54114;53.524;49.396;2022-09-17T07:19:18;25.00;55.80
67182;DHT22;54114;53.524;49.396;2022-09-17T07:21:47;25.10;55.40
67182;DHT22;54114;53.524;49.396;2022-09-17T07:24:14;25.20;54.70
67182;DHT22;54114;53.524;49.396;2022-09-17T07:26:40;25.20;54.30
67182;DHT22;54114;53.524;49.396;2022-09-17T07:29:07;25.20;54.90
67182;DHT22;54114;53.524;49.396;2022-09-17T07:31:34;25.20;54.40
67182;DHT22;54114;53.524;49.396;2022-09-17T07:34:01;25.20;54.40
67182;DHT22;54114;53.524;49.396;2022-09-17T07:36:27;25.10;54.50
67182;DHT22;54114;53.524;49.396;2022-09-17T07:38:54;25.10;55.10
67182;DHT22;54114;53.524;49.396;2022-09-17T07:41:21;25.20;55.50
67182;DHT22;54114;53.524;49.396;2022-09-17T07:43:51;25.30;55.10
67182;DHT22;54114;53.524;49.396;2022-09-17T07:46:21;25.40;55.00
67182;DHT22;54114;53.524;49.396;2022-09-17T07:48:48;25.40;54.50
67182;DHT22;54114;53.524;49.396;2022-09-17T07:51:21;25.30;54.20
67182;DHT22;54114;53.524;49.396;2022-09-17T07:53:53;25.20;54.20
67182;DHT22;54114;53.524;49.396;2022-09-17T07:56:21;25.00;54.60
67182;DHT22;54114;53.524;49.396;2022-09-17T07:58:48;24.80;54.70
67182;DHT22;54114;53.524;49.396;2022-09-17T08:01:15;24.70;55.30
67182;DHT22;54114;53.524;49.396;2022-09-17T08:03:46;24.60;55.70
67182;DHT22;54114;53.524;49.396;2022-09-17T08:06:17;24.70;55.80
67182;DHT22;54114;53.524;49.396;2022-09-17T08:08:45;24.80;55.70
67182;DHT22;54114;53.524;49.396;2022-09-17T08:11:18;25.00;55.50
67182;DHT22;54114;53.524;49.396;2022-09-17T08:13:51;25.10;55.20
67182;DHT22;54114;53.524;49.396;2022-09-17T08:16:18;25.10;55.10
67182;DHT22;54114;53.524;49.396;2022-09-17T08:18:46;25.20;55.00
67182;DHT22;54114;53.524;49.396;2022-09-17T08:21:16;25.30;54.70
67182;DHT22;54114;53.524;49.396;2022-09-17T08:23:43;25.40;54.40
67182;DHT22;54114;53.524;49.396;2022-09-17T08:26:18;25.60;54.40
67182;DHT22;54114;53.524;49.396;2022-09-17T08:28:49;25.70;53.90
67182;DHT22;54114;53.524;49.396;2022-09-17T08:31:25;26.00;53.20
67182;DHT22;54114;53.524;49.396;2022-09-17T08:33:53;25.90;52.80
67182;DHT22;54114;53.524;49.396;2022-09-17T08:36:20;25.90;53.00
67182;DHT22;54114;53.524;49.396;2022-09-17T08:38:52;26.00;52.90
67182;DHT22;54114;53.524;49.396;2022-09-17T08:46:57;26.20;52.20
67182;DHT22;54114;53.524;49.396;2022-09-17T08:49:35;26.30;51.70
67182;DHT22;54114;53.524;49.396;2022-09-17T08:52:36;26.30;51.40
67182;DHT22;54114;53.524;49.396;2022-09-17T08:55:36;26.40;51.10
67182;DHT22;54114;53.524;49.396;2022-09-17T09:04:32;26.70;50.60
67182;DHT22;54114;53.524;49.396;2022-09-17T09:07:17;27.20;50.20
67182;DHT22;54114;53.524;49.396;2022-09-17T09:09:50;27.50;49.30
67182;DHT22;54114;53.524;49.396;2022-09-17T09:12:25;27.70;48.70
67182;DHT22;54114;53.524;49.396;2022-09-17T09:14:58;27.70;47.90
67182;DHT22;54114;53.524;49.396;2022-09-17T09:17:40;27.40;48.10
67182;DHT22;54114;53.524;49.396;2022-09-17T09:21:02;27.00;48.40
67182;DHT22;54114;53.524;49.396;2022-09-17T09:24:18;26.80;49.40
67182;DHT22;54114;53.524;49.396;2022-09-17T09:29:47;26.90;49.30
67182;DHT22;54114;53.524;49.396;2022-09-17T09:32:57;26.90;49.20
67182;DHT22;54114;53.524;49.396;2022-09-17T09:35:40;26.70;49.20
67182;DHT22;54114;53.524;49.396;2022-09-17T09:40:40;26.50;50.20
67182;DHT22;54114;53.524;49.396;2022-09-17T09:43:21;26.50;50.20
67182;DHT22;54114;53.524;49.396;2022-09-17T09:46:40;26.30;50.00
67182;DHT22;54114;53.524;49.396;2022-09-17T09:49:54;26.20;50.60
67182;DHT22;54114;53.524;49.396;2022-09-17T09:58:30;26.40;50.90
67182;DHT22;54114;53.524;49.396;2022-09-17T10:01:07;26.30;50.80
67182;DHT22;54114;53.524;49.396;2022-09-17T10:03:41;26.30;51.10
67182;DHT22;54114;53.524;49.396;2022-09-17T10:06:12;26.20;51.20
67182;DHT22;54114;53.524;49.396;2022-09-17T10:11:30;25.70;52.10
67182;DHT22;54114;53.524;49.396;2022-09-17T10:14:19;25.60;52.60
67182;DHT22;54114;53.524;49.396;2022-09-17T10:16:52;25.50;52.90
67182;DHT22;54114;53.524;49.396;2022-09-17T10:19:37;25.40;53.30
67182;DHT22;54114;53.524;49.396;2022-09-17T10:22:28;25.30;53.70
67182;DHT22;54114;53.524;49.396;2022-09-17T10:24:58;25.10;53.90
67182;DHT22;54114;53.524;49.396;2022-09-17T10:27:26;25.00;54.20
67182;DHT22;54114;53.524;49.396;2022-09-17T10:30:14;25.00;54.60
67182;DHT22;54114;53.524;49.396;2022-09-17T10:32:42;24.90;55.10
67182;DHT22;54114;53.524;49.396;2022-09-17T10:37:48;24.60;55.60
67182;DHT22;54114;53.524;49.396;2022-09-17T10:42:50;24.30;56.70
67182;DHT22;54114;53.524;49.396;2022-09-17T10:45:28;24.10;57.50
67182;DHT22;54114;53.524;49.396;2022-09-17T10:47:56;23.80;58.30
67182;DHT22;54114;53.524;49.396;2022-09-17T10:50:34;23.60;59.10
67182;DHT22;54114;53.524;49.396;2022-09-17T10:53:04;23.50;60.10
67182;DHT22;54114;53.524;49.396;2022-09-17T10:58:38;23.30;61.50
67182;DHT22;54114;53.524;49.396;2022-09-17T11:04:19;23.20;62.30
67182;DHT22;54114;53.524;49.396;2022-09-17T11:08:16;23.10;62.60
67182;DHT22;54114;53.524;49.396;2022-09-17T11:14:36;22.80;63.70
67182;DHT22;54114;53.524;49.396;2022-09-17T11:20:33;22.70;64.70
67182;DHT22;54114;53.524;49.396;2022-09-17T11:23:30;22.70;65.00
67182;DHT22;54114;53.524;49.396;2022-09-17T11:33:05;22.50;65.70
67182;DHT22;54114;53.524;49.396;2022-09-17T11:35:50;22.40;66.60
67182;DHT22;54114;53.524;49.396;2022-09-17T11:41:24;22.00;67.80
67182;DHT22;54114;53.524;49.396;2022-09-17T11:44:13;21.90;68.50
67182;DHT22;54114;53.524;49.396;2022-09-17T11:46:52;21.80;69.00
67182;DHT22;54114;53.524;49.396;2022-09-17T11:49:43;21.70;69.80
67182;DHT22;54114;53.524;49.396;2022-09-17T11:57:49;21.60;70.70
67182;DHT22;54114;53.524;49.396;2022-09-17T12:00:19;21.60;71.20
67182;DHT22;54114;53.524;49.396;2022-09-17T12:05:45;21.60;71.60
67182;DHT22;54114;53.524;49.396;2022-09-17T12:10:50;21.70;71.90
67182;DHT22;54114;53.524;49.396;2022-09-17T12:13:44;21.60;72.20
67182;DHT22;54114;53.524;49.396;2022-09-17T12:16:28;21.70;72.60
67182;DHT22;54114;53.524;49.396;2022-09-17T12:24:43;21.80;72.30
67182;DHT22;54114;53.524;49.396;2022-09-17T12:30:23;21.90;72.80
67182;DHT22;54114;53.524;49.396;2022-09-17T12:32:59;22.10;72.00
67182;DHT22;54114;53.524;49.396;2022-09-17T12:41:49;22.60;72.00
67182;DHT22;54114;53.524;49.396;2022-09-17T12:50:06;23.10;69.80
67182;DHT22;54114;53.524;49.396;2022-09-17T12:55:34;23.60;68.60
67182;DHT22;54114;53.524;49.396;2022-09-17T13:01:04;24.40;66.80
67182;DHT22;54114;53.524;49.396;2022-09-17T13:03:41;24.70;65.80
67182;DHT22;54114;53.524;49.396;2022-09-17T13:09:30;24.50;65.20
67182;DHT22;54114;53.524;49.396;2022-09-17T13:19:21;25.00;63.80
67182;DHT22;54114;53.524;49.396;2022-09-17T13:21:54;25.20;62.90
67182;DHT22;54114;53.524;49.396;2022-09-17T13:24:32;25.40;62.40
67182;DHT22;54114;53.524;49.396;2022-09-17T13:27:01;25.70;61.80
67182;DHT22;54114;53.524;49.396;2022-09-17T13:37:57;25.40;61.00
67182;DHT22;54114;53.524;49.396;2022-09-17T13:43:12;25.40;60.50
67182;DHT22;54114;53.524;49.396;2022-09-17T13:48:32;25.30;60.60
67182;DHT22;54114;53.524;49.396;2022-09-17T13:54:02;24.90;61.30
67182;DHT22;54114;53.524;49.396;2022-09-17T13:56:45;24.90;61.60
67182;DHT22;54114;53.524;49.396;2022-09-17T13:59:25;24.90;61.60
67182;DHT22;54114;53.524;49.396;2022-09-17T14:07:31;24.70;62.30
67182;DHT22;54114;53.524;49.396;2022-09-17T14:09:59;24.50;62.70
67182;DHT22;54114;53.524;49.396;2022-09-17T14:18:46;24.50;63.00
67182;DHT22;54114;53.524;49.396;2022-09-17T14:21:28;24.50;62.70
67182;DHT22;54114;53.524;49.396;2022-09-17T14:24:01;24.40;63.00
67182;DHT22;54114;53.524;49.396;2022-09-17T14:26:41;24.30;63.00
67182;DHT22;54114;53.524;49.396;2022-09-17T14:38:33;24.00;63.90
67182;DHT22;54114;53.524;49.396;2022-09-17T14:43:59;23.80;63.40
67182;DHT22;54114;53.524;49.396;2022-09-17T14:46:33;23.70;63.80
67182;DHT22;54114;53.524;49.396;2022-09-17T14:49:21;23.50;64.10
67182;DHT22;54114;53.524;49.396;2022-09-17T14:51:53;23.50;64.10
67182;DHT22;54114;53.524;49.396;2022-09-17T14:54:22;23.60;64.00
67182;DHT22;54114;53.524;49.396;2022-09-17T14:56:54;23.60;63.40
67182;DHT22;54114;53.524;49.396;2022-09-17T15:05:19;23.70;63.40
67182;DHT22;54114;53.524;49.396;2022-09-17T15:07:46;23.60;63.40
67182;DHT22;54114;53.524;49.396;2022-09-17T15:10:18;23.50;63.60
67182;DHT22;54114;53.524;49.396;2022-09-17T15:12:48;23.40;63.40
67182;DHT22;54114;53.524;49.396;2022-09-17T15:15:23;23.30;64.00
67182;DHT22;54114;53.524;49.396;2022-09-17T15:17:52;23.20;63.40
67182;DHT22;54114;53.524;49.396;2022-09-17T15:20:21;23.00;63.80
67182;DHT22;54114;53.524;49.396;2022-09-17T15:23:01;22.70;64.00
67182;DHT22;54114;53.524;49.396;2022-09-17T15:25:35;22.50;64.50
67182;DHT22;54114;53.524;49.396;2022-09-17T15:28:31;22.30;65.10
67182;DHT22;54114;53.524;49.396;2022-09-17T15:31:05;22.20;65.50
67182;DHT22;54114;53.524;49.396;2022-09-17T15:33:35;22.10;65.60
67182;DHT22;54114;53.524;49.396;2022-09-17T15:36:24;22.00;65.70
67182;DHT22;54114;53.524;49.396;2022-09-17T15:38:57;21.90;65.90
67182;DHT22;54114;53.524;49.396;2022-09-17T15:41:31;21.80;66.10
67182;DHT22;54114;53.524;49.396;2022-09-17T15:44:16;21.60;66.60
67182;DHT22;54114;53.524;49.396;2022-09-17T15:46:49;21.50;66.80
67182;DHT22;54114;53.524;49.396;2022-09-17T15:49:31;21.40;67.00
67182;DHT22;54114;53.524;49.396;2022-09-17T15:52:32;21.30;67.30
67182;DHT22;54114;53.524;49.396;2022-09-17T15:55:00;21.20;67.20
67182;DHT22;54114;53.524;49.396;2022-09-17T15:57:28;21.20;67.10
67182;DHT22;54114;53.524;49.396;2022-09-17T16:00:10;21.30;67.10
67182;DHT22;54114;53.524;49.396;2022-09-17T16:02:41;21.20;67.30
67182;DHT22;54114;53.524;49.396;2022-09-17T16:07:45;21.30;67.50
67182;DHT22;54114;53.524;49.396;2022-09-17T16:10:14;21.30;67.20
67182;DHT22;54114;53.524;49.396;2022-09-17T16:12:41;21.10;67.10
67182;DHT22;54114;53.524;49.396;2022-09-17T16:15:09;21.00;67.20
67182;DHT22;54114;53.524;49.396;2022-09-17T16:17:47;20.90;67.50
67182;DHT22;54114;53.524;49.396;2022-09-17T16:20:22;20.90;67.60
67182;DHT22;54114;53.524;49.396;2022-09-17T16:22:51;20.80;67.80
67182;DHT22;54114;53.524;49.396;2022-09-17T16:25:22;20.80;67.90
67182;DHT22;54114;53.524;49.396;2022-09-17T16:27:56;20.70;68.00
67182;DHT22;54114;53.524;49.396;2022-09-17T16:30:25;20.60;68.30
67182;DHT22;54114;53.524;49.396;2022-09-17T16:32:52;20.40;68.50
67182;DHT22;54114;53.524;49.396;2022-09-17T16:35:24;20.30;68.70
67182;DHT22;54114;53.524;49.396;2022-09-17T16:37:53;20.20;69.00
67182;DHT22;54114;53.524;49.396;2022-09-17T16:40:22;20.00;69.10
67182;DHT22;54114;53.524;49.396;2022-09-17T16:42:49;20.00;69.40
67182;DHT22;54114;53.524;49.396;2022-09-17T16:45:16;20.00;69.30
67182;DHT22;54114;53.524;49.396;2022-09-17T16:47:43;20.00;69.40
67182;DHT22;54114;53.524;49.396;2022-09-17T16:50:12;19.90;69.50
67182;DHT22;54114;53.524;49.396;2022-09-17T16:52:40;19.90;69.50
67182;DHT22;54114;53.524;49.396;2022-09-17T16:55:13;19.80;69.70
67182;DHT22;54114;53.524;49.396;2022-09-17T16:57:41;19.70;70.10
67182;DHT22;54114;53.524;49.396;2022-09-17T17:00:11;19.60;70.50
67182;DHT22;54114;53.524;49.396;2022-09-17T17:02:42;19.50;70.90
67182;DHT22;54114;53.524;49.396;2022-09-17T17:05:09;19.40;71.00
67182;DHT22;54114;53.524;49.396;2022-09-17T17:07:36;19.40;71.10
67182;DHT22;54114;53.524;49.396;2022-09-17T17:10:04;19.30;70.90
67182;DHT22;54114;53.524;49.396;2022-09-17T17:12:34;19.30;71.00
67182;DHT22;54114;53.524;49.396;2022-09-17T17:15:02;19.30;71.20
67182;DHT22;54114;53.524;49.396;2022-09-17T17:17:31;19.30;71.30
67182;DHT22;54114;53.524;49.396;2022-09-17T17:20:02;19.20;71.30
67182;DHT22;54114;53.524;49.396;2022-09-17T17:22:33;19.10;71.50
67182;DHT22;54114;53.524;49.396;2022-09-17T17:25:00;18.90;71.70
67182;DHT22;54114;53.524;49.396;2022-09-17T17:27:26;18.80;72.00
67182;DHT22;54114;53.524;49.396;2022-09-17T17:29:54;18.70;72.50
67182;DHT22;54114;53.524;49.396;2022-09-17T17:32:20;18.60;72.80
67182;DHT22;54114;53.524;49.396;2022-09-17T17:34:47;18.50;73.00
67182;DHT22;54114;53.524;49.396;2022-09-17T17:37:15;18.50;73.10
67182;DHT22;54114;53.524;49.396;2022-09-17T17:39:43;18.40;73.30
67182;DHT22;54114;53.524;49.396;2022-09-17T17:42:10;18.40;73.30
67182;DHT22;54114;53.524;49.396;2022-09-17T17:44:36;18.40;73.50
67182;DHT22;54114;53.524;49.396;2022-09-17T17:47:03;18.30;73.90
67182;DHT22;54114;53.524;49.396;2022-09-17T17:49:32;18.20;74.10
67182;DHT22;54114;53.524;49.396;2022-09-17T17:51:59;18.10;74.30
67182;DHT22;54114;53.524;49.396;2022-09-17T17:54:26;18.10;74.80
67182;DHT22;54114;53.524;49.396;2022-09-17T17:56:54;18.00;75.00
67182;DHT22;54114;53.524;49.396;2022-09-17T17:59:21;17.90;75.10
67182;DHT22;54114;53.524;49.396;2022-09-17T18:01:48;17.90;75.40
67182;DHT22;54114;53.524;49.396;2022-09-17T18:04:15;17.90;75.50
67182;DHT22;54114;53.524;49.396;2022-09-17T18:06:41;17.90;75.60
67182;DHT22;54114;53.524;49.396;2022-09-17T18:09:08;17.80;75.80
67182;DHT22;54114;53.524;49.396;2022-09-17T18:11:35;17.80;75.90
67182;DHT22;54114;53.524;49.396;2022-09-17T18:14:02;17.80;76.00
67182;DHT22;54114;53.524;49.396;2022-09-17T18:16:30;17.70;76.00
67182;DHT22;54114;53.524;49.396;2022-09-17T18:18:57;17.70;76.20
67182;DHT22;54114;53.524;49.396;2022-09-17T18:21:24;17.70;76.30
67182;DHT22;54114;53.524;49.396;2022-09-17T18:23:51;17.60;76.40
67182;DHT22;54114;53.524;49.396;2022-09-17T18:26:21;17.60;76.40
67182;DHT22;54114;53.524;49.396;2022-09-17T18:28:50;17.60;76.60
67182;DHT22;54114;53.524;49.396;2022-09-17T18:31:22;17.50;76.70
67182;DHT22;54114;53.524;49.396;2022-09-17T18:33:58;17.50;76.90
67182;DHT22;54114;53.524;49.396;2022-09-17T18:36:29;17.40;77.70
67182;DHT22;54114;53.524;49.396;2022-09-17T18:39:02;17.40;77.00
67182;DHT22;54114;53.524;49.396;2022-09-17T18:41:35;17.40;77.00
67182;DHT22;54114;53.524;49.396;2022-09-17T18:44:03;17.40;77.10
67182;DHT22;54114;53.524;49.396;2022-09-17T18:46:30;17.40;77.30
67182;DHT22;54114;53.524;49.396;2022-09-17T18:48:58;17.40;77.50
67182;DHT22;54114;53.524;49.396;2022-09-17T18:51:26;17.40;77.50
67182;DHT22;54114;53.524;49.396;2022-09-17T18:53:53;17.40;77.50
67182;DHT22;54114;53.524;49.396;2022-09-17T18:56:25;17.50;77.60
67182;DHT22;54114;53.524;49.396;2022-09-17T18:58:55;17.40;77.60
67182;DHT22;54114;53.524;49.396;2022-09-17T19:01:27;17.40;77.60
67182;DHT22;54114;53.524;49.396;2022-09-17T19:03:55;17.40;77.50
67182;DHT22;54114;53.524;49.396;2022-09-17T19:06:23;17.40;77.60